aviador You're here:

YMML Decoded Metar

MELBOURNE in AUSTRALIA
Report Time2018-01-17 01:00:00
UTC Time2018-01-17 01:17:48
Flight Rules vfr VFR
Wind110° at 06 kt
W.Decomp.*RWY 09: 5.9 kt HW 0.9 kt RCW
RWY 16: 2.9 kt HW 5.2 kt LCW
W.Rank110° ranks 32
Current wind is above 110° avg. (5.8)
Visibility9999 m
Phenomena:N/A
Clouds:N/A
Expected CloudBase > 6,800 ft AGL from Temp-Dew spread
CeilingNone
Temp26°C (ISA +12)
Dew Point09°C (34% RH)
AAT23.6°C
QNH1018 hPa
Density Alt1,831 ft
Elevation463 ft
Report Wrong Elevation
Raw Report
METAR YMML 170100Z 11006KT 080V150 CAVOK 26/09 Q1018
NOSIG=

Extra information for YMML:More info

Metar Taf Metar & Taf Last 4 Metars F.Rules Stats Wind Profile Meteogram Temp Stats Airport Information Weather charts Add Link Nearby VenuesMetar ALERT Operation Metar Decoded Social comments